Time;durP1;ratioP1;P1;durP2;ratioP2;P2;SDS_P1;SDS_P2;PMS_P1;PMS_P2;Temp;Humidity;BMP_temperature;BMP_pressure;BME280_temperature;BME280_humidity;BME280_pressure;Samples;Min_cycle;Max_cycle;Signal;HPM_P1;HPM_P2
2022/01/03 00:08:33;;;;;;;5.87;4.40;;;;;;;9.45;100.00;99281.78;20994856;28;20233;-60
2022/01/03 00:18:36;;;;;;;4.80;4.30;;;;;;;9.32;100.00;99271.22;20994751;28;20218;-60
2022/01/03 00:28:59;;;;;;;5.97;4.30;;;;;;;9.44;100.00;99269.44;20994004;28;20242;-60
2022/01/03 00:39:07;;;;;;;7.17;4.00;;;;;;;9.54;100.00;99257.13;20991044;28;20231;-61
2022/01/03 00:49:10;;;;;;;4.80;3.83;;;;;;;9.46;100.00;99262.19;20974683;28;20247;-60
2022/01/03 00:59:15;;;;;;;3.97;3.40;;;;;;;9.46;100.00;99254.19;20991239;28;20231;-60
2022/01/03 01:09:19;;;;;;;5.57;3.63;;;;;;;9.48;100.00;99260.25;20989573;28;20626;-60
2022/01/03 01:19:23;;;;;;;5.13;3.27;;;;;;;9.45;100.00;99230.34;20988680;28;20257;-60
2022/01/03 01:29:29;;;;;;;4.47;3.30;;;;;;;9.25;100.00;99213.25;20987769;28;20309;-59
2022/01/03 01:39:33;;;;;;;4.13;3.10;;;;;;;9.23;100.00;99249.78;20986909;28;20297;-60
2022/01/03 01:49:45;;;;;;;5.60;3.47;;;;;;;9.26;100.00;99244.25;20986130;28;20711;-60
2022/01/03 02:00:06;;;;;;;4.70;3.20;;;;;;;9.26;100.00;99233.59;20970194;28;20233;-60
2022/01/03 02:10:18;;;;;;;4.23;3.27;;;;;;;9.18;100.00;99267.91;21069295;28;20230;-60
2022/01/03 02:20:27;;;;;;;5.17;3.23;;;;;;;8.92;100.00;99214.84;21070270;28;20221;-60
2022/01/03 02:30:40;;;;;;;3.67;3.00;;;;;;;8.86;100.00;99214.44;21069269;28;20271;-60
2022/01/03 02:40:43;;;;;;;3.73;3.17;;;;;;;8.84;100.00;99214.56;21069062;28;20305;-60
2022/01/03 02:50:47;;;;;;;3.20;2.87;;;;;;;8.46;100.00;99200.59;21050945;28;20302;-63
2022/01/03 03:00:52;;;;;;;3.73;2.60;;;;;;;8.10;100.00;99193.44;21066883;28;20274;-59
2022/01/03 03:11:05;;;;;;;3.80;2.83;;;;;;;7.97;100.00;99204.97;21066381;28;20571;-60
2022/01/03 03:21:08;;;;;;;2.93;2.70;;;;;;;7.90;100.00;99186.91;21076445;28;20235;-60
2022/01/03 03:31:12;;;;;;;5.07;2.87;;;;;;;7.85;100.00;99189.03;21078357;28;20286;-60
2022/01/03 03:41:17;;;;;;;5.33;2.70;;;;;;;7.81;100.00;99184.94;21080667;28;20220;-59
2022/01/03 03:51:25;;;;;;;4.70;2.80;;;;;;;7.74;100.00;99186.31;21079920;28;20690;-60
2022/01/03 04:01:30;;;;;;;2.70;2.50;;;;;;;7.56;100.00;99173.38;21079059;28;20296;-61
2022/01/03 04:11:35;;;;;;;5.13;2.50;;;;;;;7.39;100.00;99191.44;21078346;28;20229;-59
2022/01/03 04:21:40;;;;;;;5.40;3.80;;;;;;;7.23;100.00;99165.13;21077688;28;20229;-59
2022/01/03 04:31:44;;;;;;;6.50;4.10;;;;;;;7.14;100.00;99186.97;21078007;28;20220;-59
2022/01/03 04:51:49;;;;;;;5.97;3.97;;;;;;;7.18;100.00;99164.56;21145981;27;20622;-60
2022/01/03 05:01:53;;;;;;;6.80;4.40;;;;;;;7.04;100.00;99168.16;21216488;27;20258;-60
2022/01/03 05:11:58;;;;;;;4.73;4.20;;;;;;;6.95;100.00;99176.75;21206816;27;20222;-59
2022/01/03 05:22:01;;;;;;;6.83;4.20;;;;;;;6.95;100.00;99173.25;21189110;27;20284;-60
2022/01/03 05:42:04;;;;;;;4.90;4.40;;;;;;;6.88;100.00;99178.13;21006172;27;20579;-60
2022/01/03 05:52:08;;;;;;;5.07;4.50;;;;;;;6.81;100.00;99193.59;20972979;28;20736;-59
2022/01/03 06:02:12;;;;;;;5.00;4.50;;;;;;;6.67;100.00;99183.06;20972876;28;20235;-60
2022/01/03 06:12:16;;;;;;;5.87;4.80;;;;;;;6.57;100.00;99179.31;20970969;28;20312;-60
2022/01/03 06:22:23;;;;;;;5.27;4.43;;;;;;;6.56;100.00;99190.88;20971549;28;20588;-60
2022/01/03 06:32:31;;;;;;;7.90;5.40;;;;;;;6.39;100.00;99199.09;20967728;28;20225;-60
2022/01/03 06:42:35;;;;;;;5.73;5.13;;;;;;;6.31;100.00;99206.66;20907296;28;20233;-61
2022/01/03 06:52:39;;;;;;;5.97;4.83;;;;;;;6.29;100.00;99213.84;20815095;28;20242;-61
2022/01/03 07:02:44;;;;;;;5.47;4.80;;;;;;;6.30;100.00;99205.81;20882991;28;20829;-62
2022/01/03 07:12:54;;;;;;;5.07;4.63;;;;;;;6.43;100.00;99208.50;20885528;28;20232;-62
2022/01/03 07:22:57;;;;;;;6.57;5.43;;;;;;;6.49;100.00;99214.28;20906177;28;20245;-61
2022/01/03 07:33:01;;;;;;;6.33;5.40;;;;;;;6.60;100.00;99213.56;20990401;28;20659;-61
2022/01/03 07:43:04;;;;;;;6.93;5.90;;;;;;;6.74;100.00;99221.47;20910110;28;20229;-59
2022/01/03 07:53:08;;;;;;;7.10;4.80;;;;;;;6.96;100.00;99212.09;20890700;28;20826;-62
2022/01/03 08:03:12;;;;;;;6.07;5.00;;;;;;;7.28;100.00;99210.75;20883873;28;20696;-64
2022/01/03 08:13:16;;;;;;;5.10;4.60;;;;;;;7.61;100.00;99223.47;20849300;28;20239;-62
2022/01/03 08:23:19;;;;;;;5.30;4.80;;;;;;;7.85;100.00;99207.63;20881637;28;20242;-60
2022/01/03 08:33:22;;;;;;;6.40;5.67;;;;;;;7.90;100.00;99202.84;20882599;28;20274;-60
2022/01/03 08:43:26;;;;;;;6.77;6.17;;;;;;;7.97;100.00;99205.94;20881118;28;20249;-60
2022/01/03 08:53:29;;;;;;;5.80;5.20;;;;;;;8.08;100.00;99206.03;20880070;28;20620;-60
2022/01/03 09:03:34;;;;;;;5.23;4.57;;;;;;;8.19;100.00;99211.41;20863100;28;20708;-61
2022/01/03 09:13:38;;;;;;;5.17;4.63;;;;;;;8.29;100.00;99215.94;20880540;28;20591;-60
2022/01/03 09:23:46;;;;;;;6.47;5.13;;;;;;;8.23;100.00;99216.38;20885783;28;20237;-63
2022/01/03 09:33:53;;;;;;;4.60;4.20;;;;;;;8.01;100.00;99212.72;20879728;28;20260;-60
2022/01/03 09:44:03;;;;;;;3.83;3.53;;;;;;;7.82;100.00;99206.06;20874834;28;20262;-61
2022/01/03 09:54:12;;;;;;;3.30;3.00;;;;;;;7.69;100.00;99212.34;20876591;28;20238;-60
2022/01/03 10:04:16;;;;;;;3.47;3.13;;;;;;;7.47;100.00;99205.03;20876705;28;20786;-61
2022/01/03 10:14:19;;;;;;;2.80;2.60;;;;;;;7.37;100.00;99202.13;20876892;28;20257;-60
2022/01/03 10:24:37;;;;;;;3.43;2.77;;;;;;;7.45;100.00;99201.63;20885023;28;20770;-59
2022/01/03 10:34:40;;;;;;;3.00;2.70;;;;;;;7.62;100.00;99205.75;20892459;28;20891;-62
2022/01/03 10:44:45;;;;;;;2.07;1.90;;;;;;;7.70;100.00;99203.44;20874123;28;20700;-58
2022/01/03 10:55:11;;;;;;;2.47;2.00;;;;;;;7.87;100.00;99192.44;20889454;28;20231;-59
2022/01/03 11:05:14;;;;;;;1.70;1.60;;;;;;;8.00;100.00;99193.28;20888113;28;20229;-59
2022/01/03 11:15:24;;;;;;;2.40;2.10;;;;;;;8.13;100.00;99188.78;20870321;28;20341;-59
2022/01/03 11:25:32;;;;;;;2.77;2.57;;;;;;;8.23;100.00;99189.81;20887575;28;20760;-58
2022/01/03 11:35:36;;;;;;;3.20;2.50;;;;;;;8.18;100.00;99167.19;20902887;28;20594;-58
2022/01/03 11:45:40;;;;;;;3.43;3.13;;;;;;;8.28;100.00;99166.41;20908776;28;20687;-58
2022/01/03 11:55:44;;;;;;;2.87;2.60;;;;;;;8.28;100.00;99166.41;20908111;28;20242;-58
2022/01/03 12:05:48;;;;;;;3.10;2.90;;;;;;;8.45;100.00;99173.16;20907771;28;20310;-58
2022/01/03 12:16:05;;;;;;;3.83;3.50;;;;;;;8.38;100.00;99171.06;20908083;28;20322;-58
2022/01/03 12:26:17;;;;;;;5.13;4.43;;;;;;;8.21;100.00;99188.25;20905989;28;20229;-59
2022/01/03 12:36:21;;;;;;;5.00;4.53;;;;;;;8.14;100.00;99195.78;20906388;28;20595;-59
2022/01/03 12:46:25;;;;;;;4.00;3.70;;;;;;;7.97;100.00;99209.41;20905013;28;20226;-58
2022/01/03 12:56:31;;;;;;;4.10;3.80;;;;;;;7.78;100.00;99214.34;20904996;28;20570;-59
2022/01/03 13:06:35;;;;;;;3.10;2.83;;;;;;;7.61;100.00;99238.59;20900710;28;20590;-58
2022/01/03 13:17:01;;;;;;;2.97;2.67;;;;;;;7.52;100.00;99245.38;20901780;28;20250;-59
2022/01/03 13:27:08;;;;;;;4.20;3.90;;;;;;;7.47;100.00;99280.22;20902409;28;20241;-59
2022/01/03 13:37:11;;;;;;;5.27;4.80;;;;;;;7.46;100.00;99290.91;20901790;28;20235;-59
2022/01/03 14:07:35;;;;;;;6.63;6.03;;;;;;;7.36;100.00;99329.66;21112251;27;20562;-58
2022/01/03 14:17:49;;;;;;;6.43;5.93;;;;;;;7.22;100.00;99344.69;21140958;28;20715;-58
2022/01/03 14:28:04;;;;;;;6.70;5.70;;;;;;;7.14;100.00;99351.44;21075075;28;20236;-59
2022/01/03 14:38:10;;;;;;;5.80;5.20;;;;;;;7.12;100.00;99363.97;21053035;28;20226;-59
2022/01/03 14:48:17;;;;;;;5.97;5.37;;;;;;;7.12;100.00;99370.13;21134073;28;20222;-58
2022/01/03 14:58:22;;;;;;;6.37;5.77;;;;;;;7.05;100.00;99373.25;21137272;28;20240;-58
2022/01/03 15:08:27;;;;;;;8.87;7.97;;;;;;;7.00;100.00;99380.69;21136805;28;20248;-59
2022/01/03 15:18:30;;;;;;;9.50;8.50;;;;;;;6.89;100.00;99399.91;21081564;28;20812;-59
2022/01/03 15:28:34;;;;;;;10.10;8.87;;;;;;;6.77;100.00;99403.34;21078483;28;20226;-59
2022/01/03 15:38:37;;;;;;;6.80;6.10;;;;;;;6.77;100.00;99416.59;21073657;28;20229;-59
2022/01/03 15:58:38;;;;;;;6.63;5.00;;;;;;;6.77;100.00;99433.34;20993145;27;20925;-60
2022/01/03 16:08:41;;;;;;;5.93;4.73;;;;;;;6.79;100.00;99431.47;21055098;27;20765;-61
2022/01/03 16:18:47;;;;;;;6.70;4.27;;;;;;;6.49;100.00;99428.09;21055880;27;20274;-60
2022/01/03 16:58:51;;;;;;;8.20;5.80;;;;;;;6.60;100.00;99415.03;21047473;27;20642;-59
2022/01/03 17:08:54;;;;;;;7.20;5.90;;;;;;;6.58;100.00;99414.25;21040739;27;20297;-61
2022/01/03 17:18:57;;;;;;;7.83;7.00;;;;;;;6.64;100.00;99416.50;21045077;27;20346;-65
2022/01/03 17:29:14;;;;;;;7.90;6.30;;;;;;;6.80;100.00;99422.56;21054186;27;20339;-65
2022/01/03 17:39:52;;;;;;;8.70;7.33;;;;;;;6.83;100.00;99414.41;21027924;28;20277;-72
2022/01/03 17:50:34;;;;;;;7.63;6.90;;;;;;;6.68;100.00;99399.47;21052080;28;20244;-73
2022/01/03 18:01:05;;;;;;;12.60;7.97;;;;;;;6.90;100.00;99427.28;21039056;28;20204;-71
2022/01/03 18:11:44;;;;;;;11.60;7.30;;;;;;;6.98;100.00;99409.09;20986625;28;20232;-72
2022/01/03 18:45:28;;;;;;;12.43;6.23;;;;;;;6.65;100.00;99418.22;20941910;23;20878;-59
2022/01/03 18:56:09;;;;;;;12.90;6.93;;;;;;;6.75;100.00;99414.06;20936954;28;20850;-64
2022/01/03 19:06:46;;;;;;;9.70;5.70;;;;;;;6.90;100.00;99417.53;20939693;28;20204;-66
2022/01/03 19:17:23;;;;;;;8.10;5.90;;;;;;;6.94;100.00;99412.88;20933681;28;20642;-66
2022/01/03 19:37:58;;;;;;;9.97;5.93;;;;;;;6.90;100.00;99390.16;22720321;22;1278644;-58
2022/01/03 19:57:58;;;;;;;8.07;5.63;;;;;;;6.85;100.00;99388.66;21171408;22;21371;-56
2022/01/03 20:08:03;;;;;;;12.43;6.40;;;;;;;6.73;100.00;99396.53;21162336;27;20253;-55
2022/01/03 20:18:07;;;;;;;10.80;6.03;;;;;;;6.78;100.00;99407.69;21153445;27;21159;-56
2022/01/03 20:28:10;;;;;;;6.90;5.50;;;;;;;6.80;100.00;99409.31;21186242;28;20204;-56
2022/01/03 20:38:13;;;;;;;6.90;4.77;;;;;;;6.76;100.00;99410.44;21107919;28;20203;-57
2022/01/03 20:58:11;;;;;;;8.07;5.03;;;;;;;6.68;100.00;99418.03;21013812;27;20744;-57
2022/01/03 21:19:02;;;;;;;8.37;3.57;;;;;;;6.59;100.00;99396.56;21195622;22;20599;-59
2022/01/03 21:29:04;;;;;;;4.67;3.23;;;;;;;6.63;100.00;99393.63;21143451;27;20200;-60
2022/01/03 21:39:07;;;;;;;5.93;3.63;;;;;;;6.58;100.00;99381.59;21146821;27;20211;-59
2022/01/03 21:49:10;;;;;;;6.43;4.00;;;;;;;6.72;100.00;99385.09;21136967;28;20639;-63
2022/01/03 21:59:12;;;;;;;4.67;3.90;;;;;;;6.48;100.00;99376.03;21098906;28;20197;-60
2022/01/03 22:09:19;;;;;;;5.33;3.63;;;;;;;6.30;100.00;99375.34;21070018;28;20224;-60
2022/01/03 22:19:22;;;;;;;6.73;3.60;;;;;;;6.26;100.00;99365.06;21060719;28;20236;-60
2022/01/03 22:29:24;;;;;;;4.70;4.03;;;;;;;5.91;100.00;99352.19;21011031;28;20191;-60
2022/01/03 22:39:28;;;;;;;6.23;4.57;;;;;;;5.66;100.00;99346.63;21021046;28;20700;-60
2022/01/03 22:49:31;;;;;;;7.57;4.43;;;;;;;5.94;100.00;99340.53;21004171;28;20299;-59
2022/01/03 22:59:35;;;;;;;5.03;4.13;;;;;;;6.16;100.00;99324.22;21056571;28;20227;-60
2022/01/03 23:19:33;;;;;;;9.77;5.27;;;;;;;6.32;100.00;99314.34;21093668;27;20721;-61
2022/01/03 23:29:40;;;;;;;11.40;5.63;;;;;;;6.48;100.00;99300.03;21073310;28;20203;-62
2022/01/03 23:39:43;;;;;;;10.63;5.50;;;;;;;6.48;100.00;99304.47;21080184;28;20207;-62
2022/01/03 23:49:46;;;;;;;9.13;5.47;;;;;;;6.45;100.00;99307.31;21078454;28;20209;-61
2022/01/03 23:59:49;;;;;;;7.67;4.77;;;;;;;6.44;100.00;99302.97;21076147;28;20204;-61
